createdAt,value
2019-02-18T00:01:52.001Z,10.60
2019-02-18T00:06:55.861Z,10.51
2019-02-18T00:11:59.675Z,10.44
2019-02-18T00:17:03.556Z,10.36
2019-02-18T00:22:07.345Z,10.26
2019-02-18T00:27:11.205Z,10.21
2019-02-18T00:32:15.041Z,10.19
2019-02-18T00:37:24.462Z,10.17
2019-02-18T00:42:24.752Z,10.07
2019-02-18T00:47:28.581Z,9.98
2019-02-18T00:52:32.385Z,9.92
2019-02-18T00:57:36.249Z,9.87
2019-02-18T01:02:40.056Z,9.82
2019-02-18T01:07:43.857Z,9.79
2019-02-18T01:12:47.824Z,9.72
2019-02-18T01:17:51.925Z,9.65
2019-02-18T01:22:55.765Z,9.57
2019-02-18T01:27:59.955Z,9.51
2019-02-18T01:33:03.880Z,9.43
2019-02-18T01:38:07.749Z,9.39
2019-02-18T01:43:11.623Z,9.32
2019-02-18T01:48:15.515Z,9.26
2019-02-18T01:53:19.419Z,9.18
2019-02-18T01:58:23.552Z,9.12
2019-02-18T02:03:27.452Z,9.04
2019-02-18T02:08:31.259Z,9.00
2019-02-18T02:13:36.507Z,8.97
2019-02-18T02:18:40.471Z,8.88
2019-02-18T02:23:44.262Z,8.86
2019-02-18T02:28:48.214Z,8.84
2019-02-18T02:33:52.020Z,8.79
2019-02-18T02:38:55.825Z,8.73
2019-02-18T02:43:59.617Z,8.70
2019-02-18T02:49:03.406Z,8.63
2019-02-18T02:54:07.210Z,8.53
2019-02-18T02:59:11.032Z,8.44
2019-02-18T03:04:14.819Z,8.28
2019-02-18T03:09:18.621Z,8.25
2019-02-18T03:14:22.520Z,8.22
2019-02-18T03:19:26.331Z,8.16
2019-02-18T03:24:30.157Z,8.13
2019-02-18T03:30:15.118Z,8.08
2019-02-18T03:35:18.973Z,8.07
2019-02-18T03:40:22.863Z,7.98
2019-02-18T03:45:26.690Z,7.92
2019-02-18T03:50:30.567Z,7.90
2019-02-18T03:55:34.509Z,7.88
2019-02-18T04:00:38.389Z,7.83
2019-02-18T04:05:42.329Z,7.75
2019-02-18T04:10:46.312Z,7.67
2019-02-18T04:15:50.125Z,7.65
2019-02-18T04:20:53.935Z,7.61
2019-02-18T04:25:57.745Z,7.55
2019-02-18T04:31:01.602Z,7.52
2019-02-18T04:36:05.423Z,7.48
2019-02-18T04:41:09.331Z,7.42
2019-02-18T04:46:13.121Z,7.39
2019-02-18T04:51:16.943Z,7.33
2019-02-18T04:56:20.735Z,7.33
2019-02-18T05:01:24.695Z,7.27
2019-02-18T05:06:28.553Z,7.15
2019-02-18T05:11:32.413Z,7.13
2019-02-18T05:16:36.201Z,7.11
2019-02-18T05:21:40.091Z,7.03
2019-02-18T05:26:43.916Z,6.92
2019-02-18T05:31:47.783Z,6.94
2019-02-18T05:36:51.704Z,6.99
2019-02-18T05:41:55.596Z,6.99
2019-02-18T05:46:59.409Z,6.82
2019-02-18T05:52:03.311Z,6.86
2019-02-18T05:57:07.130Z,6.89
2019-02-18T06:02:10.919Z,6.84
2019-02-18T06:07:14.730Z,6.84
2019-02-18T06:12:18.789Z,6.81
2019-02-18T06:17:22.687Z,6.79
2019-02-18T06:22:26.533Z,6.77
2019-02-18T06:27:30.507Z,6.76
2019-02-18T06:32:34.331Z,6.69
2019-02-18T06:37:38.265Z,6.66
2019-02-18T06:42:42.059Z,6.61
2019-02-18T06:47:45.923Z,6.56
2019-02-18T06:52:49.711Z,6.48
2019-02-18T06:58:04.060Z,6.47
2019-02-18T07:03:28.011Z,6.48
2019-02-18T07:08:51.655Z,6.43
2019-02-18T07:13:58.453Z,6.36
2019-02-18T07:19:02.287Z,6.38
2019-02-18T07:24:06.139Z,6.40
2019-02-18T07:29:09.985Z,6.41
2019-02-18T07:34:14.043Z,6.41
2019-02-18T07:39:17.859Z,6.41
2019-02-18T07:44:21.725Z,6.44
2019-02-18T07:49:25.706Z,6.67
2019-02-18T07:54:29.589Z,7.03
2019-02-18T07:59:33.381Z,7.41
2019-02-18T08:04:37.187Z,7.77
2019-02-18T08:09:41.175Z,8.12
2019-02-18T08:14:45.055Z,8.39
2019-02-18T08:19:48.954Z,8.52
2019-02-18T08:24:52.863Z,8.73
2019-02-18T08:29:56.681Z,8.86
2019-02-18T08:35:00.839Z,9.28
2019-02-18T08:40:04.873Z,9.70
2019-02-18T08:45:10.397Z,10.03
2019-02-18T08:50:14.175Z,10.32
2019-02-18T08:55:18.330Z,10.30
2019-02-18T09:00:22.357Z,10.62
2019-02-18T09:05:26.209Z,10.88
2019-02-18T09:10:33.701Z,11.30
2019-02-18T09:15:35.630Z,11.64
2019-02-18T09:20:39.532Z,11.68
2019-02-18T09:25:48.559Z,12.07
2019-02-18T09:30:54.613Z,12.45
2019-02-18T09:35:58.568Z,12.69
2019-02-18T09:41:02.367Z,12.88
2019-02-18T09:46:06.187Z,13.02
2019-02-18T09:51:10.405Z,13.32
2019-02-18T09:56:14.227Z,13.52
2019-02-18T10:01:18.026Z,13.90
2019-02-18T10:06:22.391Z,14.10
2019-02-18T10:11:28.389Z,14.52
2019-02-18T10:16:32.857Z,14.83
2019-02-18T10:21:36.732Z,15.09
2019-02-18T10:26:40.780Z,15.41
2019-02-18T10:31:44.787Z,15.75
2019-02-18T10:36:48.671Z,16.03
2019-02-18T10:41:52.632Z,16.37
2019-02-18T10:46:56.511Z,16.48
2019-02-18T10:52:00.379Z,16.12
2019-02-18T10:57:04.263Z,16.07
2019-02-18T11:02:08.582Z,16.27
2019-02-18T11:07:12.601Z,16.40
2019-02-18T11:12:16.655Z,16.66
2019-02-18T11:17:20.645Z,17.07
2019-02-18T11:22:24.817Z,16.76
2019-02-18T11:27:28.623Z,16.81
2019-02-18T11:32:32.624Z,17.48
2019-02-18T11:37:36.449Z,17.83
2019-02-18T11:42:40.378Z,17.98
2019-02-18T11:47:44.659Z,18.21
2019-02-18T11:52:48.465Z,18.55
2019-02-18T11:57:52.405Z,18.83
2019-02-18T12:03:03.672Z,19.13
2019-02-18T12:08:02.105Z,18.61
2019-02-18T12:13:05.975Z,18.68
2019-02-18T12:18:09.823Z,18.99
2019-02-18T12:23:13.736Z,19.53
2019-02-18T12:28:17.644Z,19.88
2019-02-18T12:33:21.562Z,19.89
2019-02-18T12:38:25.455Z,19.89
2019-02-18T12:43:29.504Z,20.16
2019-02-18T12:48:35.289Z,20.35
2019-02-18T12:53:39.125Z,20.38
2019-02-18T12:58:43.029Z,20.35
2019-02-18T13:03:46.880Z,20.49
2019-02-18T13:08:50.752Z,20.80
2019-02-18T13:13:54.673Z,20.91
2019-02-18T13:18:58.539Z,21.11
2019-02-18T13:24:02.571Z,21.13
2019-02-18T13:29:06.539Z,21.30
2019-02-18T13:34:10.403Z,21.48
2019-02-18T13:39:14.283Z,21.50
2019-02-18T13:44:18.245Z,21.69
2019-02-18T13:49:22.036Z,21.80
2019-02-18T13:54:26.009Z,21.77
2019-02-18T13:59:29.883Z,21.81
2019-02-18T14:04:33.695Z,21.76
2019-02-18T14:09:37.503Z,21.93
2019-02-18T14:14:41.467Z,21.97
2019-02-18T14:19:45.725Z,21.95
2019-02-18T14:24:49.543Z,21.97
2019-02-18T14:29:53.663Z,21.75
2019-02-18T14:34:57.482Z,21.66
2019-02-18T14:40:01.379Z,21.65
2019-02-18T14:45:08.767Z,21.87
2019-02-18T14:50:14.031Z,22.11
2019-02-18T14:55:17.928Z,22.13
2019-02-18T15:00:25.661Z,22.14
2019-02-18T15:05:29.559Z,22.11
2019-02-18T15:10:36.791Z,22.16
2019-02-18T15:15:40.644Z,22.26
2019-02-18T15:20:44.543Z,22.27
2019-02-18T15:25:48.423Z,22.21
2019-02-18T15:30:54.135Z,22.17
2019-02-18T15:35:58.932Z,22.11
2019-02-18T15:41:03.083Z,22.09
2019-02-18T15:46:07.050Z,22.06
2019-02-18T15:51:12.198Z,22.01
2019-02-18T15:56:16.435Z,21.98
2019-02-18T16:01:20.346Z,21.92
2019-02-18T16:06:24.545Z,21.87
2019-02-18T16:11:28.415Z,21.75
2019-02-18T16:16:32.272Z,21.67
2019-02-18T16:21:36.243Z,21.48
2019-02-18T16:26:40.242Z,21.48
2019-02-18T16:31:44.269Z,21.42
2019-02-18T16:36:48.259Z,21.27
2019-02-18T16:41:52.247Z,21.27
2019-02-18T16:46:56.283Z,21.01
2019-02-18T16:52:00.120Z,21.01
2019-02-18T16:57:04.236Z,20.93
2019-02-18T17:02:09.713Z,20.80
2019-02-18T17:07:13.841Z,20.60
2019-02-18T17:12:17.833Z,20.42
2019-02-18T17:17:21.696Z,20.35
2019-02-18T17:22:25.606Z,20.26
2019-02-18T17:27:29.555Z,20.11
2019-02-18T17:32:34.593Z,19.95
2019-02-18T17:37:38.623Z,19.73
2019-02-18T17:42:42.521Z,19.54
2019-02-18T17:47:46.740Z,19.47
2019-02-18T17:52:50.664Z,19.42
2019-02-18T17:57:54.983Z,19.37
2019-02-18T18:02:58.881Z,19.23
2019-02-18T18:08:02.879Z,18.90
2019-02-18T18:13:06.785Z,18.61
2019-02-18T18:18:10.641Z,18.39
2019-02-18T18:23:14.753Z,18.21
2019-02-18T18:28:18.843Z,18.14
2019-02-18T18:33:23.504Z,18.10
2019-02-18T18:38:29.029Z,18.03
2019-02-18T18:43:34.066Z,17.92
2019-02-18T18:48:38.225Z,17.85
2019-02-18T18:53:42.137Z,17.80
2019-02-18T18:58:46.367Z,17.54
2019-02-18T19:03:50.527Z,17.28
2019-02-18T19:08:54.525Z,17.10
2019-02-18T19:13:58.528Z,16.99
2019-02-18T19:19:02.969Z,16.97
2019-02-18T19:24:06.951Z,16.81
2019-02-18T19:29:10.943Z,16.63
2019-02-18T19:34:15.257Z,16.47
2019-02-18T19:39:19.313Z,16.39
2019-02-18T19:44:24.513Z,16.31
2019-02-18T19:49:28.535Z,16.26
2019-02-18T19:54:32.582Z,16.06
2019-02-18T19:59:36.641Z,15.86
2019-02-18T20:04:40.535Z,15.63
2019-02-18T20:09:44.813Z,15.44
2019-02-18T20:14:48.840Z,15.34
2019-02-18T20:19:52.835Z,15.19
2019-02-18T20:24:56.891Z,15.13
2019-02-18T20:30:00.735Z,14.98
2019-02-18T20:35:05.248Z,14.93
2019-02-18T20:40:10.988Z,14.85
2019-02-18T20:45:17.015Z,14.75
2019-02-18T20:50:21.007Z,14.59
2019-02-18T20:55:25.087Z,14.43
2019-02-18T21:00:28.983Z,14.45
2019-02-18T21:05:33.040Z,14.41
2019-02-18T21:10:37.030Z,14.22
2019-02-18T21:15:40.973Z,14.15
2019-02-18T21:20:44.801Z,14.07
2019-02-18T21:25:48.787Z,14.04
2019-02-18T21:30:52.907Z,14.01
2019-02-18T21:35:56.858Z,13.94
2019-02-18T21:41:00.857Z,13.90
2019-02-18T21:46:05.101Z,13.85
2019-02-18T21:51:09.087Z,13.76
2019-02-18T21:56:13.150Z,13.69
2019-02-18T22:01:17.168Z,13.62
2019-02-18T22:06:21.209Z,13.47
2019-02-18T22:11:25.227Z,13.36
2019-02-18T22:16:29.327Z,13.22
2019-02-18T22:21:33.349Z,13.10
2019-02-18T22:26:37.331Z,13.03
2019-02-18T22:31:41.233Z,12.98
2019-02-18T22:36:47.044Z,12.94
2019-02-18T22:41:51.007Z,12.85
2019-02-18T22:46:54.876Z,12.79
2019-02-18T22:51:58.748Z,12.68
2019-02-18T22:57:02.583Z,12.61
2019-02-18T23:02:06.768Z,12.49
2019-02-18T23:07:10.621Z,12.39
2019-02-18T23:12:14.519Z,12.32
2019-02-18T23:17:18.467Z,12.27
2019-02-18T23:22:24.063Z,12.17
2019-02-18T23:27:29.092Z,12.08
2019-02-18T23:32:33.459Z,12.00
2019-02-18T23:37:37.983Z,11.96
2019-02-18T23:42:42.819Z,11.90
2019-02-18T23:47:46.688Z,11.82
2019-02-18T23:52:50.678Z,11.58
2019-02-18T23:57:54.584Z,11.40
